Time;durP1;ratioP1;P1;durP2;ratioP2;P2;SDS_P1;SDS_P2;PMS_P1;PMS_P2;Temp;Humidity;BMP_temperature;BMP_pressure;BME280_temperature;BME280_humidity;BME280_pressure;Samples;Min_cycle;Max_cycle;Signal;HPM_P1;HPM_P2
2023/06/11 20:46:20;;;;;;;;;;;;;;;;;;5046978;28;6595;-82
2023/06/11 20:48:45;;;;;;;;;;;;;;;;;;5030783;28;6860;-84
2023/06/11 20:51:11;;;;;;;;;;;;;;;;;;5030277;28;8460;-83
2023/06/11 20:53:36;;;;;;;;;;;;;;;;;;5028351;28;8304;-83
2023/06/11 20:56:02;;;;;;;;;;;;;;;;;;5024445;28;8618;-83
2023/06/11 20:58:28;;;;;;;;;;;;;;;;;;5026030;28;8650;-83
2023/06/11 21:00:53;;;;;;;;;;;;;;;;;;5025630;28;8323;-83
2023/06/11 21:03:19;;;;;;;;;;;;;;;;;;5026367;28;8343;-83
2023/06/11 21:05:45;;;;;;;;;;;;;;;;;;5025587;28;7140;-83
2023/06/11 21:08:14;;;;;;;;;;;;;;;;;;5026126;28;7068;-83
2023/06/11 21:10:40;;;;;;;;;;;;;;;;;;5026295;28;7261;-83
2023/06/11 21:13:05;;;;;;;;;;;;;;;;;;5026131;28;7202;-82
2023/06/11 21:15:31;;;;;;;;;;;;;;;;;;5026317;28;6984;-82
2023/06/11 21:17:57;;;;;;;;;;;;;;;;;;5026040;28;7028;-83
2023/06/11 21:20:23;;;;;;;;;;;;;;;;;;5025977;28;7380;-83
2023/06/11 21:22:48;;;;;;;;;;;;;;;;;;5027352;28;6973;-82
2023/06/11 21:25:14;;;;;;;;;;;;;;;;;;5027093;28;7067;-83
2023/06/11 21:27:41;;;;;;;;;;;;;;;;;;5027482;28;7068;-84
2023/06/11 21:30:07;;;;;;;;;;;;;;;;;;5026260;28;8751;-92
2023/06/11 21:32:33;;;;;;;;;;;;;;;;;;5005917;28;8720;-94
2023/06/11 21:34:58;;;;;;;;;;;;;;;;;;5026969;28;8672;-94
2023/06/11 21:37:23;;;;;;;;;;;;;;;;;;5025596;28;7215;-95
2023/06/11 21:39:52;;;;;;;;;;;;;;;;;;5010012;28;8435;-94
2023/06/11 21:42:18;;;;;;;;;;;;;;;;;;5004165;28;7128;-90
2023/06/11 21:44:44;;;;;;;;;;;;;;;;;;4995992;28;8674;-90
2023/06/11 21:47:10;;;;;;;;;;;;;;;;;;4995186;28;8342;-91
2023/06/11 21:49:35;;;;;;;;;;;;;;;;;;5002563;28;7036;-92
2023/06/11 21:52:01;;;;;;;;;;;;;;;;;;5008621;28;8358;-90
2023/06/11 21:54:30;;;;;;;;;;;;;;;;;;5008099;28;7178;-90
2023/06/11 21:57:50;;;;;;;;;;;;;;;;;;4999673;28;6836;-91
2023/06/11 22:00:10;;;;;;;;;;;;;;;;;;4994642;28;7139;-90
2023/06/11 22:02:42;;;;;;;;;;;;;;;;;;4997560;28;7046;-88
2023/06/11 22:05:09;;;;;;;;;;;;;;;;;;5006558;28;8595;-88
2023/06/11 22:07:35;;;;;;;;;;;;;;;;;;5005226;28;8281;-88
2023/06/11 22:10:03;;;;;;;;;;;;;;;;;;4999050;28;8292;-89
2023/06/11 22:12:36;;;;;;;;;;;;;;;;;;4995494;28;7217;-89
2023/06/11 22:15:03;;;;;;;;;;;;;;;;;;4995378;28;8976;-88
2023/06/11 22:17:31;;;;;;;;;;;;;;;;;;4995074;28;8788;-90
2023/06/11 22:20:08;;;;;;;;;;;;;;;;;;4995234;28;9257;-90
2023/06/11 22:22:38;;;;;;;;;;;;;;;;;;4995014;28;9509;-89
2023/06/11 22:25:07;;;;;;;;;;;;;;;;;;4995051;28;8378;-90
2023/06/11 22:27:34;;;;;;;;;;;;;;;;;;4994783;28;8781;-89
2023/06/11 22:30:00;;;;;;;;;;;;;;;;;;4996053;28;8484;-87
2023/06/11 22:32:26;;;;;;;;;;;;;;;;;;4995016;28;7141;-88
2023/06/11 22:34:51;;;;;;;;;;;;;;;;;;4994885;28;8432;-89
2023/06/11 22:37:17;;;;;;;;;;;;;;;;;;4995096;28;8877;-89
2023/06/11 22:39:42;;;;;;;;;;;;;;;;;;4994725;28;8370;-88
2023/06/11 22:42:08;;;;;;;;;;;;;;;;;;4994665;28;8693;-88
2023/06/11 22:44:33;;;;;;;;;;;;;;;;;;4995034;28;7130;-89
2023/06/11 22:47:01;;;;;;;;;;;;;;;;;;4996519;28;7021;-92
2023/06/11 22:49:27;;;;;;;;;;;;;;;;;;4996206;28;8406;-92
2023/06/11 22:51:54;;;;;;;;;;;;;;;;;;4995531;28;8933;-92
2023/06/11 22:54:20;;;;;;;;;;;;;;;;;;4994662;28;8501;-90
2023/06/11 22:56:46;;;;;;;;;;;;;;;;;;4994394;28;8766;-93
2023/06/11 22:59:14;;;;;;;;;;;;;;;;;;4994631;28;8697;-92
2023/06/11 23:01:40;;;;;;;;;;;;;;;;;;4994652;28;8812;-92
2023/06/11 23:04:06;;;;;;;;;;;;;;;;;;4995758;28;7370;-95
2023/06/11 23:06:32;;;;;;;;;;;;;;;;;;4995172;28;8462;-95
2023/06/11 23:08:57;;;;;;;;;;;;;;;;;;4991707;28;7054;-91
2023/06/11 23:11:23;;;;;;;;;;;;;;;;;;4984846;28;7091;-91
2023/06/11 23:13:48;;;;;;;;;;;;;;;;;;4983815;28;7042;-89
2023/06/11 23:16:14;;;;;;;;;;;;;;;;;;5010105;28;8429;-91
2023/06/11 23:18:41;;;;;;;;;;;;;;;;;;5007297;28;8530;-90
2023/06/11 23:21:10;;;;;;;;;;;;;;;;;;5010403;28;8392;-88
2023/06/11 23:23:41;;;;;;;;;;;;;;;;;;5010141;28;8642;-89
2023/06/11 23:26:09;;;;;;;;;;;;;;;;;;5010854;28;8809;-91
2023/06/11 23:28:39;;;;;;;;;;;;;;;;;;5010880;28;7239;-90
2023/06/11 23:31:05;;;;;;;;;;;;;;;;;;5010061;28;8368;-91
2023/06/11 23:33:31;;;;;;;;;;;;;;;;;;5010058;28;8272;-92
2023/06/11 23:35:58;;;;;;;;;;;;;;;;;;5010598;28;7148;-91
2023/06/11 23:38:24;;;;;;;;;;;;;;;;;;5010258;28;7073;-92
2023/06/11 23:40:49;;;;;;;;;;;;;;;;;;5010441;28;8474;-91
2023/06/11 23:43:15;;;;;;;;;;;;;;;;;;5010294;28;8388;-92
2023/06/11 23:45:41;;;;;;;;;;;;;;;;;;5009814;28;7475;-91
2023/06/11 23:48:07;;;;;;;;;;;;;;;;;;5009943;28;8357;-90
2023/06/11 23:50:32;;;;;;;;;;;;;;;;;;5010036;28;6998;-92
2023/06/11 23:52:58;;;;;;;;;;;;;;;;;;5009929;28;7011;-90
2023/06/11 23:55:24;;;;;;;;;;;;;;;;;;5009637;28;8480;-90
2023/06/11 23:58:03;;;;;;;;;;;;;;;;;;5010023;28;8737;-89
